Time;durP1;ratioP1;P1;durP2;ratioP2;P2;SDS_P1;SDS_P2;PMS_P1;PMS_P2;Temp;Humidity;BMP_temperature;BMP_pressure;BME280_temperature;BME280_humidity;BME280_pressure;Samples;Min_cycle;Max_cycle;Signal;HPM_P1;HPM_P2
2022/11/05 00:10:17;;;;;;;3.20;1.10;;;19.60;76.30;;;;;;10535879;28;20052;-24
2022/11/05 00:20:38;;;;;;;2.15;0.80;;;19.50;77.00;;;;;;10541943;28;20500;-27
2022/11/05 00:25:41;;;;;;;5.40;0.80;;;19.40;76.80;;;;;;10537851;28;20740;-25
2022/11/05 00:30:43;;;;;;;2.58;0.80;;;19.30;77.80;;;;;;10538697;28;20043;-25
2022/11/05 00:35:45;;;;;;;5.35;0.98;;;19.50;76.30;;;;;;10537854;28;20047;-25
2022/11/05 00:40:48;;;;;;;4.80;1.58;;;19.20;77.30;;;;;;10539005;28;20040;-28
2022/11/05 00:45:50;;;;;;;4.68;1.20;;;18.80;76.20;;;;;;10537911;28;20101;-24
2022/11/05 00:50:52;;;;;;;2.85;0.70;;;19.50;76.20;;;;;;10531954;28;20052;-25
2022/11/05 00:55:55;;;;;;;3.42;1.00;;;19.60;75.30;;;;;;10539054;28;20044;-24
2022/11/05 01:00:59;;;;;;;3.08;1.10;;;19.60;75.20;;;;;;10535863;28;20044;-26
2022/11/05 01:06:08;;;;;;;1.63;0.60;;;19.30;76.50;;;;;;10545004;28;20184;-25
2022/11/05 01:11:31;;;;;;;2.60;0.75;;;19.60;75.10;;;;;;10538802;28;20131;-24
2022/11/05 01:16:34;;;;;;;1.48;0.77;;;19.60;74.50;;;;;;10538077;28;20052;-24
2022/11/05 01:21:36;;;;;;;2.47;0.70;;;19.60;74.40;;;;;;10537755;28;20093;-25
2022/11/05 01:26:39;;;;;;;1.98;0.70;;;19.60;74.20;;;;;;10535310;28;20075;-25
2022/11/05 01:31:41;;;;;;;1.52;0.80;;;15.40;75.90;;;;;;10538076;28;20484;-25
2022/11/05 01:36:43;;;;;;;2.70;1.67;;;19.00;79.40;;;;;;10536253;28;20105;-25
2022/11/05 01:41:47;;;;;;;1.90;0.80;;;19.40;75.20;;;;;;10533865;28;20477;-24
2022/11/05 01:46:48;;;;;;;0.85;0.52;;;19.50;74.40;;;;;;10534736;28;20040;-25
2022/11/05 01:51:51;;;;;;;2.08;0.55;;;19.60;74.00;;;;;;10533628;28;20048;-25
2022/11/05 01:56:57;;;;;;;1.10;0.65;;;19.50;73.80;;;;;;10532930;28;20476;-25
2022/11/05 02:02:00;;;;;;;2.88;0.70;;;19.60;73.50;;;;;;10532742;28;20108;-25
2022/11/05 02:07:02;;;;;;;2.13;0.70;;;19.60;73.50;;;;;;10531103;28;20452;-25
2022/11/05 02:12:07;;;;;;;3.53;0.68;;;19.60;73.40;;;;;;10523522;28;20075;-24
2022/11/05 02:17:15;;;;;;;2.63;0.70;;;19.50;73.60;;;;;;10529175;28;20721;-25
2022/11/05 02:22:41;;;;;;;1.13;0.52;;;19.50;73.60;;;;;;10537489;28;20126;-25
2022/11/05 02:28:08;;;;;;;3.50;0.65;;;17.60;83.30;;;;;;10500829;28;20056;-24
2022/11/05 02:33:33;;;;;;;10.18;1.55;;;18.10;79.30;;;;;;10535950;28;20036;-24
2022/11/05 02:38:41;;;;;;;1.35;0.63;;;16.90;65.30;;;;;;10533618;28;20403;-24
2022/11/05 02:44:06;;;;;;;3.92;0.75;;;16.30;92.80;;;;;;10531962;28;20101;-26
2022/11/05 02:49:19;;;;;;;1.23;0.50;;;17.60;87.90;;;;;;10534007;28;20546;-25
2022/11/05 02:54:26;;;;;;;2.13;0.90;;;18.70;78.90;;;;;;10543340;28;20048;-25
2022/11/05 02:59:28;;;;;;;1.05;0.60;;;19.00;75.90;;;;;;10534166;28;20112;-25
2022/11/05 03:04:32;;;;;;;1.88;0.43;;;18.90;77.10;;;;;;10540363;28;20472;-25
2022/11/05 03:10:06;;;;;;;2.10;0.55;;;19.20;74.60;;;;;;10535974;28;20101;-26
2022/11/05 03:15:19;;;;;;;0.85;0.60;;;19.00;69.90;;;;;;10539404;28;20141;-24
2022/11/05 03:20:29;;;;;;;2.05;0.60;;;19.10;74.80;;;;;;10532112;28;20052;-24
2022/11/05 03:25:36;;;;;;;1.35;0.60;;;18.60;76.90;;;;;;10537193;28;20043;-24
2022/11/05 03:30:42;;;;;;;0.90;0.60;;;18.80;77.30;;;;;;10539193;28;20044;-24
2022/11/05 03:35:48;;;;;;;1.17;0.50;;;19.10;75.00;;;;;;10543923;28;20061;-24
2022/11/05 03:40:54;;;;;;;5.45;0.50;;;19.20;74.20;;;;;;10542939;28;20074;-25
2022/11/05 03:46:00;;;;;;;1.63;0.70;;;19.20;74.00;;;;;;10543365;28;20048;-25
2022/11/05 03:51:11;;;;;;;2.05;0.60;;;19.20;73.70;;;;;;10542595;28;20075;-25
2022/11/05 03:56:18;;;;;;;0.40;0.40;;;19.20;73.80;;;;;;10543136;28;20117;-25
2022/11/05 04:01:19;;;;;;;1.20;0.40;;;19.30;73.40;;;;;;10542246;28;20403;-25
2022/11/05 04:17:08;;;;;;;1.08;0.60;;;19.20;73.50;;;;;;10540091;28;20055;-24
2022/11/05 04:27:31;;;;;;;1.38;0.40;;;19.20;73.50;;;;;;10538829;28;20048;-23
2022/11/05 04:32:32;;;;;;;0.80;0.50;;;19.20;73.60;;;;;;10539915;28;20143;-25
2022/11/05 04:37:36;;;;;;;1.13;0.30;;;19.10;73.90;;;;;;10533779;28;20069;-24
2022/11/05 04:42:38;;;;;;;0.70;0.35;;;19.20;73.50;;;;;;10540557;28;20478;-25
2022/11/05 04:47:39;;;;;;;1.45;0.50;;;19.20;73.40;;;;;;10544292;28;20039;-25
2022/11/05 04:52:43;;;;;;;0.55;0.38;;;19.20;73.50;;;;;;10541920;28;20106;-25
2022/11/05 04:57:47;;;;;;;0.65;0.30;;;19.10;73.40;;;;;;10538338;28;20144;-24
2022/11/05 05:02:49;;;;;;;0.20;0.20;;;19.10;73.30;;;;;;10538855;28;20083;-25
2022/11/05 05:07:52;;;;;;;0.55;0.17;;;19.10;73.10;;;;;;10542704;28;20048;-24
2022/11/05 05:12:54;;;;;;;0.35;0.30;;;19.10;73.40;;;;;;10538154;28;20129;-25
2022/11/05 05:17:56;;;;;;;0.40;0.30;;;19.10;73.10;;;;;;10543715;28;20101;-24
2022/11/05 05:22:59;;;;;;;0.70;0.28;;;19.10;73.10;;;;;;10533975;28;20055;-25
2022/11/05 05:28:01;;;;;;;0.90;0.40;;;19.10;73.30;;;;;;10535978;28;20109;-24
2022/11/05 05:33:03;;;;;;;1.45;0.50;;;19.10;73.00;;;;;;10537324;28;20083;-24
2022/11/05 05:38:07;;;;;;;0.82;0.30;;;19.20;73.00;;;;;;10532095;28;20048;-24
2022/11/05 05:43:09;;;;;;;1.95;0.60;;;19.10;72.90;;;;;;10538084;28;20109;-25
2022/11/05 05:48:10;;;;;;;0.30;0.30;;;19.10;72.90;;;;;;10536160;28;20048;-24
2022/11/05 05:53:14;;;;;;;2.40;0.40;;;19.10;73.70;;;;;;10539214;28;20094;-27
2022/11/05 05:58:16;;;;;;;0.40;0.40;;;19.10;72.70;;;;;;10536085;28;20048;-25
2022/11/05 06:03:18;;;;;;;1.92;0.30;;;19.10;72.90;;;;;;10536698;28;20121;-25
2022/11/05 06:08:21;;;;;;;;;;;19.00;73.10;;;;;;10535831;28;20040;-25
2022/11/05 06:13:23;;;;;;;0.63;0.40;;;19.10;73.00;;;;;;10538553;28;19936;-24
2022/11/05 06:18:25;;;;;;;0.40;0.40;;;19.10;72.80;;;;;;10534666;28;20059;-25
2022/11/05 06:23:30;;;;;;;1.48;0.50;;;19.10;73.20;;;;;;10535234;28;20063;-25
2022/11/05 06:28:32;;;;;;;0.90;0.50;;;19.10;73.20;;;;;;10533297;28;20044;-21
2022/11/05 06:33:35;;;;;;;2.13;0.70;;;19.10;73.40;;;;;;10533841;28;20476;-24
2022/11/05 06:38:38;;;;;;;0.63;0.40;;;19.10;73.40;;;;;;10536157;28;20058;-24
2022/11/05 06:43:40;;;;;;;2.15;0.43;;;19.10;73.60;;;;;;10534847;28;20070;-24
2022/11/05 06:48:42;;;;;;;0.70;0.50;;;19.20;73.70;;;;;;10535619;28;20051;-26
2022/11/05 06:53:45;;;;;;;2.50;0.77;;;19.20;74.40;;;;;;10542613;28;20052;-25
2022/11/05 06:58:47;;;;;;;1.60;0.77;;;19.20;74.10;;;;;;10533044;28;20047;-25
2022/11/05 07:15:30;;;;;;;1.92;0.57;;;19.30;73.30;;;;;;10532899;27;20139;-25
2022/11/05 07:20:32;;;;;;;1.65;0.68;;;19.30;74.70;;;;;;10526602;28;20117;-27
2022/11/05 07:25:35;;;;;;;0.88;0.73;;;19.20;75.20;;;;;;10527997;28;20053;-26
2022/11/05 07:30:38;;;;;;;;;;;19.20;75.20;;;;;;10526027;28;20093;-25
2022/11/05 07:35:40;;;;;;;3.92;0.82;;;19.00;76.70;;;;;;10526371;28;19924;-25
2022/11/05 07:40:42;;;;;;;1.48;0.73;;;19.30;74.80;;;;;;10525372;28;20045;-25
2022/11/05 07:45:46;;;;;;;1.90;0.70;;;19.30;74.80;;;;;;10523629;28;20097;-25
2022/11/05 07:50:51;;;;;;;2.08;0.75;;;19.40;74.30;;;;;;10527057;28;20056;-24
2022/11/05 07:55:55;;;;;;;2.13;0.80;;;19.30;74.80;;;;;;10528492;28;20076;-26
2022/11/05 08:00:59;;;;;;;2.75;0.68;;;19.20;75.50;;;;;;10522139;28;20150;-24
2022/11/05 08:06:01;;;;;;;3.95;1.10;;;19.30;74.80;;;;;;10525246;28;20427;-27
2022/11/05 08:11:04;;;;;;;3.50;0.90;;;19.20;74.90;;;;;;10520640;28;20095;-26
2022/11/05 08:16:08;;;;;;;3.90;1.05;;;19.40;74.50;;;;;;10517899;28;20063;-25
2022/11/05 08:21:10;;;;;;;3.72;1.08;;;19.20;75.20;;;;;;10518158;28;20405;-26
2022/11/05 08:26:12;;;;;;;1.20;0.60;;;19.00;76.50;;;;;;10503175;28;20044;-26
2022/11/05 08:31:16;;;;;;;2.28;1.00;;;19.20;75.70;;;;;;10505830;28;20871;-25
2022/11/05 08:36:19;;;;;;;4.47;1.10;;;19.00;76.40;;;;;;10494310;28;20127;-26
2022/11/05 08:41:20;;;;;;;1.90;0.75;;;19.20;75.30;;;;;;10489165;28;20749;-26
2022/11/05 08:46:24;;;;;;;3.78;1.27;;;19.10;77.00;;;;;;10496444;28;20126;-27
2022/11/05 08:51:26;;;;;;;2.80;1.25;;;17.50;81.60;;;;;;10500857;28;20128;-25
2022/11/05 08:56:28;;;;;;;5.45;1.60;;;18.40;80.60;;;;;;10483349;28;20496;-26
2022/11/05 09:01:32;;;;;;;5.22;1.42;;;17.70;81.30;;;;;;10492059;28;20048;-25
2022/11/05 09:06:34;;;;;;;1.60;0.93;;;18.00;84.20;;;;;;10500310;28;20064;-25
2022/11/05 09:11:36;;;;;;;5.00;1.42;;;18.40;82.00;;;;;;10486583;28;20052;-25
2022/11/05 09:16:42;;;;;;;3.03;1.00;;;17.70;81.80;;;;;;10493281;28;20067;-24
2022/11/05 09:21:44;;;;;;;7.57;1.63;;;17.50;84.50;;;;;;10496765;28;20040;-26
2022/11/05 09:26:46;;;;;;;4.03;2.25;;;18.00;85.10;;;;;;10499807;28;20052;-25
2022/11/05 09:31:49;;;;;;;6.53;1.60;;;17.20;84.30;;;;;;10494189;28;20087;-25
2022/11/05 09:36:51;;;;;;;4.10;1.75;;;16.90;83.30;;;;;;10490740;28;20040;-25
2022/11/05 09:41:55;;;;;;;3.45;1.30;;;17.40;90.40;;;;;;10482860;28;20053;-26
2022/11/05 09:47:04;;;;;;;3.53;1.17;;;18.60;81.40;;;;;;10491293;28;20652;-29
2022/11/05 09:52:11;;;;;;;7.32;2.75;;;18.00;86.10;;;;;;10491525;28;20129;-26
2022/11/05 09:57:17;;;;;;;6.32;1.30;;;18.20;74.70;;;;;;10489549;28;20401;-27
2022/11/05 10:02:22;;;;;;;4.05;1.17;;;17.70;87.40;;;;;;10489093;28;20497;-25
2022/11/05 10:07:28;;;;;;;6.78;2.92;;;17.10;87.10;;;;;;10490719;28;20044;-30
2022/11/05 10:12:35;;;;;;;6.50;2.30;;;16.40;90.50;;;;;;10488086;28;20484;-28
2022/11/05 10:17:44;;;;;;;8.23;2.42;;;16.80;88.30;;;;;;10498196;28;20068;-26
2022/11/05 10:22:46;;;;;;;4.85;1.40;;;16.90;90.00;;;;;;10494495;28;20136;-27
2022/11/05 10:27:51;;;;;;;9.00;2.15;;;17.80;87.10;;;;;;10489075;28;20098;-29
2022/11/05 10:32:58;;;;;;;3.90;1.52;;;15.80;80.90;;;;;;10490209;28;20110;-26
2022/11/05 10:38:02;;;;;;;3.33;1.20;;;16.90;91.20;;;;;;10486594;28;20052;-25
2022/11/05 10:43:06;;;;;;;5.57;1.20;;;17.70;80.70;;;;;;10487135;28;20505;-27
2022/11/05 10:48:38;;;;;;;8.20;1.98;;;17.00;77.30;;;;;;10487289;28;20146;-29
2022/11/05 10:53:49;;;;;;;8.07;1.42;;;16.40;84.90;;;;;;10491075;28;20045;-26
2022/11/05 10:58:54;;;;;;;6.15;1.15;;;14.90;81.20;;;;;;10484152;28;20082;-25
2022/11/05 11:04:13;;;;;;;4.32;1.20;;;16.50;90.30;;;;;;10484588;28;20464;-24
2022/11/05 11:09:22;;;;;;;4.95;1.27;;;16.20;88.90;;;;;;10489920;28;20503;-27
2022/11/05 11:14:24;;;;;;;8.27;2.58;;;15.80;89.80;;;;;;10485295;28;20059;-28
2022/11/05 11:19:30;;;;;;;3.70;0.93;;;16.00;81.60;;;;;;10488370;28;20083;-30
2022/11/05 11:24:38;;;;;;;6.57;1.42;;;16.90;85.90;;;;;;10486325;28;20110;-26
2022/11/05 11:29:43;;;;;;;6.22;1.10;;;16.00;93.00;;;;;;10492467;28;20044;-26
2022/11/05 11:34:51;;;;;;;5.10;1.83;;;16.50;92.10;;;;;;10482375;28;20141;-26
2022/11/05 11:39:57;;;;;;;2.67;1.10;;;16.60;90.70;;;;;;10497708;28;20048;-25
2022/11/05 11:45:01;;;;;;;3.90;1.67;;;17.10;90.50;;;;;;10487425;28;20045;-26
2022/11/05 11:50:05;;;;;;;10.23;1.33;;;16.50;74.60;;;;;;10485999;28;20051;-25
2022/11/05 11:55:18;;;;;;;6.28;1.35;;;16.20;82.00;;;;;;10492610;28;20052;-28
2022/11/05 12:00:24;;;;;;;;;;;16.70;76.80;;;;;;10490640;28;20037;-26
2022/11/05 12:05:39;;;;;;;3.75;1.27;;;16.60;84.20;;;;;;10494682;28;19974;-26
2022/11/05 12:10:50;;;;;;;4.05;1.52;;;16.30;85.20;;;;;;10493420;28;20830;-26
2022/11/05 12:15:54;;;;;;;6.15;1.38;;;16.20;93.60;;;;;;10493178;28;20124;-26
2022/11/05 12:21:06;;;;;;;4.65;1.27;;;18.10;86.10;;;;;;10493163;28;20484;-28
2022/11/05 12:26:22;;;;;;;5.90;2.63;;;17.60;89.40;;;;;;10494276;28;20079;-26
2022/11/05 12:31:33;;;;;;;5.47;1.48;;;18.60;81.90;;;;;;10498779;28;20474;-26
2022/11/05 12:36:46;;;;;;;7.57;1.60;;;18.20;83.60;;;;;;10492027;28;20051;-27
2022/11/05 12:41:56;;;;;;;5.05;1.50;;;17.60;90.10;;;;;;10494501;28;20056;-26
2022/11/05 12:47:09;;;;;;;7.50;1.70;;;16.90;86.90;;;;;;10488789;28;20087;-25
2022/11/05 12:52:40;;;;;;;4.35;1.40;;;18.80;78.70;;;;;;10491931;28;20044;-26
2022/11/05 12:57:45;;;;;;;3.70;1.13;;;19.50;77.10;;;;;;10491490;28;20094;-26
2022/11/05 13:03:05;;;;;;;5.88;1.75;;;19.10;79.00;;;;;;10502935;28;20041;-25
2022/11/05 13:08:29;;;;;;;6.75;1.50;;;17.90;82.70;;;;;;10511736;28;20174;-24
2022/11/05 13:13:58;;;;;;;9.90;2.08;;;18.60;81.30;;;;;;10503116;28;20078;-24
2022/11/05 13:24:53;;;;;;;3.20;1.33;;;18.20;87.60;;;;;;10496188;28;20052;-25
2022/11/05 13:30:28;;;;;;;5.05;1.60;;;18.30;82.40;;;;;;10499383;28;20064;-24
2022/11/05 13:35:41;;;;;;;5.43;1.20;;;18.00;75.40;;;;;;10493922;28;20099;-27
2022/11/05 13:41:00;;;;;;;6.20;1.60;;;18.90;82.70;;;;;;10488653;28;20080;-25
2022/11/05 13:46:16;;;;;;;6.90;2.30;;;17.60;73.10;;;;;;10497451;28;20715;-26
2022/11/05 13:51:36;;;;;;;5.18;1.83;;;18.30;85.80;;;;;;10493395;28;20044;-25
2022/11/05 13:56:56;;;;;;;7.57;2.10;;;17.70;88.10;;;;;;10485187;28;20060;-25
2022/11/05 14:02:01;;;;;;;3.95;1.63;;;16.40;86.90;;;;;;10484529;28;20468;-27
2022/11/05 14:07:09;;;;;;;10.23;1.50;;;17.50;91.10;;;;;;10485190;28;20163;-27
2022/11/05 14:12:22;;;;;;;3.30;1.08;;;18.40;85.20;;;;;;10483220;28;20103;-28
2022/11/05 14:17:32;;;;;;;8.02;2.40;;;18.50;85.30;;;;;;10493780;28;20074;-24
2022/11/05 14:22:39;;;;;;;2.00;0.93;;;18.00;81.70;;;;;;10488402;28;20131;-26
2022/11/05 14:27:44;;;;;;;5.25;2.10;;;18.50;86.10;;;;;;10500379;28;20056;-25
2022/11/05 14:32:49;;;;;;;4.50;1.45;;;18.20;79.80;;;;;;10490817;28;20076;-26
2022/11/05 14:37:53;;;;;;;5.78;1.75;;;18.90;83.20;;;;;;10491322;28;20128;-27
2022/11/05 14:43:00;;;;;;;3.88;2.72;;;18.40;84.90;;;;;;10491528;28;20137;-28
2022/11/05 14:48:05;;;;;;;7.13;2.10;;;18.70;82.00;;;;;;10490203;28;20477;-27
2022/11/05 14:53:12;;;;;;;1.95;0.80;;;18.30;74.90;;;;;;10492587;28;20076;-27
2022/11/05 14:58:30;;;;;;;2.05;0.98;;;19.30;81.10;;;;;;10489920;28;20130;-25
2022/11/05 15:04:07;;;;;;;3.15;1.40;;;19.30;81.30;;;;;;10488655;28;20844;-25
2022/11/05 15:09:37;;;;;;;3.42;1.60;;;19.60;79.00;;;;;;10506261;28;20182;-25
2022/11/05 15:20:58;;;;;;;11.33;1.73;;;19.70;78.00;;;;;;10494213;28;20114;-25
2022/11/05 15:26:20;;;;;;;7.68;1.58;;;20.00;79.90;;;;;;10488437;28;20044;-24
2022/11/05 15:31:38;;;;;;;5.97;1.92;;;19.60;81.20;;;;;;10490237;28;20052;-24
2022/11/05 15:37:00;;;;;;;3.80;1.05;;;20.30;77.10;;;;;;10498366;28;20493;-25
2022/11/05 15:42:11;;;;;;;3.85;1.60;;;20.20;79.40;;;;;;10500590;28;20063;-25
2022/11/05 15:47:19;;;;;;;3.38;1.50;;;19.80;79.20;;;;;;10498824;28;20056;-25
2022/11/05 15:52:24;;;;;;;4.63;1.10;;;20.10;79.80;;;;;;10494896;28;20098;-25
2022/11/05 15:57:29;;;;;;;7.82;2.42;;;20.60;75.20;;;;;;10495926;28;20481;-25
2022/11/05 16:02:33;;;;;;;2.97;1.45;;;19.30;81.00;;;;;;10493000;28;20594;-25
2022/11/05 16:07:40;;;;;;;5.30;1.65;;;20.30;74.60;;;;;;10495810;28;20044;-26
2022/11/05 16:12:42;;;;;;;3.10;1.25;;;20.30;79.70;;;;;;10493038;28;20435;-26
2022/11/05 16:17:51;;;;;;;6.60;2.05;;;20.40;79.10;;;;;;10495976;28;20045;-25
2022/11/05 16:22:57;;;;;;;4.22;1.60;;;20.20;81.50;;;;;;10503935;28;20079;-25
2022/11/05 16:28:00;;;;;;;6.47;2.80;;;20.10;80.80;;;;;;10493442;28;20045;-29
2022/11/05 16:33:07;;;;;;;4.55;1.85;;;19.70;78.40;;;;;;10494201;28;20524;-26
2022/11/05 16:38:12;;;;;;;5.15;1.77;;;20.40;77.40;;;;;;10495470;28;20091;-28
2022/11/05 16:43:19;;;;;;;6.40;2.20;;;20.20;72.80;;;;;;10494241;28;20037;-24
2022/11/05 16:48:22;;;;;;;7.55;2.65;;;20.90;73.90;;;;;;10494242;28;20090;-25
2022/11/05 16:53:25;;;;;;;4.43;1.77;;;21.00;68.80;;;;;;10483921;28;20052;-26
2022/11/05 16:58:27;;;;;;;8.70;2.55;;;20.70;73.50;;;;;;10492917;28;20072;-26
2022/11/05 17:03:29;;;;;;;4.28;1.77;;;20.00;75.70;;;;;;10492113;28;20052;-25
2022/11/05 17:08:32;;;;;;;3.65;1.45;;;20.40;75.40;;;;;;10490745;28;20049;-24
2022/11/05 17:13:34;;;;;;;8.85;2.58;;;20.10;76.70;;;;;;10487159;28;20075;-24
2022/11/05 17:18:36;;;;;;;8.15;2.50;;;20.00;77.30;;;;;;10487580;28;20052;-25
2022/11/05 17:23:40;;;;;;;10.82;2.40;;;20.10;76.30;;;;;;10492418;28;20090;-27
2022/11/05 17:28:42;;;;;;;8.48;2.20;;;19.50;80.80;;;;;;10490114;28;20074;-25
2022/11/05 17:33:44;;;;;;;7.63;2.47;;;20.20;76.80;;;;;;10487911;28;20094;-27
2022/11/05 17:38:47;;;;;;;12.25;3.72;;;19.30;79.80;;;;;;10491347;28;20131;-26
2022/11/05 17:43:54;;;;;;;23.70;3.33;;;18.50;86.80;;;;;;10491906;28;20068;-25
2022/11/05 17:48:56;;;;;;;11.77;3.33;;;19.60;79.70;;;;;;10487481;28;20075;-30
2022/11/05 17:54:00;;;;;;;;;;;19.30;78.00;;;;;;10478112;28;20171;-25
2022/11/05 17:59:02;;;;;;;12.75;2.72;;;18.10;88.30;;;;;;10490462;28;19920;-25
2022/11/05 18:04:04;;;;;;;13.45;3.75;;;17.40;91.10;;;;;;10491308;28;20090;-25
2022/11/05 18:09:09;;;;;;;12.18;2.70;;;18.90;86.60;;;;;;10481230;28;20044;-25
2022/11/05 18:14:11;;;;;;;8.50;3.42;;;19.10;83.70;;;;;;10486163;28;20068;-25
2022/11/05 18:19:13;;;;;;;7.63;3.03;;;19.00;71.40;;;;;;10486820;28;20051;-25
2022/11/05 18:24:16;;;;;;;14.63;2.20;;;19.40;81.60;;;;;;10489871;28;20075;-24
2022/11/05 18:29:19;;;;;;;6.28;2.30;;;17.40;82.50;;;;;;10489731;28;20052;-25
2022/11/05 18:34:20;;;;;;;;;;;19.60;80.70;;;;;;10481058;28;20091;-25
2022/11/05 18:39:24;;;;;;;6.18;2.28;;;18.90;78.40;;;;;;10485706;28;20465;-26
2022/11/05 18:44:26;;;;;;;8.25;2.03;;;18.80;86.60;;;;;;10489745;28;20102;-25
2022/11/05 18:49:27;;;;;;;10.43;2.22;;;19.00;83.30;;;;;;10489964;28;20044;-25
2022/11/05 18:54:31;;;;;;;8.13;2.55;;;18.90;84.40;;;;;;10500576;28;20052;-25
2022/11/05 18:59:33;;;;;;;6.28;2.13;;;17.10;90.70;;;;;;10488329;28;20767;-24
2022/11/05 19:04:36;;;;;;;6.10;2.22;;;17.50;92.10;;;;;;10488655;28;20041;-24
2022/11/05 19:09:39;;;;;;;4.13;1.92;;;18.40;77.30;;;;;;10490469;28;20444;-24
2022/11/05 19:14:43;;;;;;;7.10;3.22;;;18.80;85.50;;;;;;10486271;28;20061;-25
2022/11/05 19:19:45;;;;;;;10.63;3.10;;;17.90;90.50;;;;;;10484786;28;20051;-25
2022/11/05 19:24:48;;;;;;;10.85;3.25;;;19.20;71.80;;;;;;10484028;28;20109;-25
2022/11/05 19:29:51;;;;;;;9.60;4.15;;;18.80;75.60;;;;;;10486910;28;20455;-25
2022/11/05 19:34:53;;;;;;;;;;;18.60;87.90;;;;;;10487492;28;20949;-25
2022/11/05 19:39:56;;;;;;;7.13;2.80;;;17.50;92.50;;;;;;10485389;28;20420;-25
2022/11/05 19:44:58;;;;;;;7.95;3.05;;;17.90;85.20;;;;;;10485093;28;20102;-27
2022/11/05 19:50:00;;;;;;;5.70;2.50;;;18.00;91.30;;;;;;10482349;28;20091;-24
2022/11/05 19:55:04;;;;;;;9.35;3.00;;;19.10;83.10;;;;;;10487528;28;20094;-25
2022/11/05 20:00:07;;;;;;;6.40;2.47;;;19.10;85.20;;;;;;10486731;28;20480;-27
2022/11/05 20:05:09;;;;;;;5.45;1.80;;;19.20;82.40;;;;;;10488278;28;20480;-27
2022/11/05 20:10:13;;;;;;;9.13;2.28;;;19.50;81.90;;;;;;10487304;28;20453;-25
2022/11/05 20:15:15;;;;;;;9.02;2.42;;;18.50;88.00;;;;;;10481954;28;20060;-26
2022/11/05 20:20:17;;;;;;;7.70;1.92;;;17.90;91.00;;;;;;10478288;28;20489;-26
2022/11/05 20:25:20;;;;;;;8.13;1.85;;;18.90;86.90;;;;;;10499350;28;20109;-25
2022/11/05 20:30:22;;;;;;;13.38;2.05;;;19.10;84.60;;;;;;10495179;28;20044;-24
2022/11/05 20:35:24;;;;;;;11.32;2.53;;;19.00;83.90;;;;;;10494019;28;20447;-25
2022/11/05 20:40:28;;;;;;;13.02;2.63;;;18.20;89.80;;;;;;10484682;28;20753;-24
2022/11/05 20:45:30;;;;;;;9.32;1.88;;;18.60;85.90;;;;;;10487695;28;20041;-26
2022/11/05 20:50:32;;;;;;;12.33;2.17;;;18.10;89.50;;;;;;10492940;28;20147;-25
2022/11/05 20:55:42;;;;;;;8.35;2.13;;;18.10;81.90;;;;;;10490100;28;20493;-26
2022/11/05 21:00:49;;;;;;;6.07;2.05;;;18.70;84.60;;;;;;10492763;28;20106;-25
2022/11/05 21:05:56;;;;;;;10.85;3.70;;;18.50;84.00;;;;;;10495411;28;20040;-25
2022/11/05 21:10:59;;;;;;;6.18;1.77;;;17.70;87.10;;;;;;10490030;28;20040;-26
2022/11/05 21:16:02;;;;;;;6.20;1.90;;;17.90;88.50;;;;;;10492309;28;20144;-25
2022/11/05 21:21:05;;;;;;;5.07;1.42;;;18.40;84.90;;;;;;10491540;28;20098;-24
2022/11/05 21:26:11;;;;;;;9.95;2.17;;;16.60;92.60;;;;;;10493318;28;20114;-24
2022/11/05 21:31:14;;;;;;;4.68;1.67;;;16.80;92.00;;;;;;10486469;28;20048;-24
2022/11/05 21:36:16;;;;;;;7.65;1.90;;;18.50;85.90;;;;;;10492742;28;20048;-24
2022/11/05 21:41:19;;;;;;;6.13;1.88;;;16.50;93.70;;;;;;10489291;28;20141;-23
2022/11/05 21:46:21;;;;;;;2.75;1.45;;;16.80;93.30;;;;;;10499782;28;20082;-25
2022/11/05 22:02:06;;;;;;;3.90;1.05;;;17.80;90.30;;;;;;10492900;28;20045;-25
2022/11/05 22:07:09;;;;;;;7.35;1.75;;;18.20;87.20;;;;;;10490926;28;20075;-24
2022/11/05 22:12:13;;;;;;;4.68;1.20;;;18.10;88.50;;;;;;10493670;28;20111;-24
2022/11/05 22:17:16;;;;;;;6.25;1.58;;;18.40;83.90;;;;;;10498610;28;20080;-24
2022/11/05 22:22:18;;;;;;;5.25;2.63;;;17.30;90.30;;;;;;10490629;28;20040;-25
2022/11/05 22:27:21;;;;;;;3.60;1.92;;;17.50;90.00;;;;;;10497938;28;20073;-25
2022/11/05 22:32:23;;;;;;;6.45;1.60;;;16.70;94.00;;;;;;10477384;28;20067;-25
2022/11/05 22:37:25;;;;;;;7.13;1.98;;;16.70;92.30;;;;;;10491258;28;20176;-25
2022/11/05 22:42:28;;;;;;;4.93;1.63;;;17.10;91.50;;;;;;10487650;28;20173;-24
2022/11/05 22:47:30;;;;;;;4.43;1.98;;;17.70;89.00;;;;;;10463738;28;20044;-27
2022/11/05 22:52:32;;;;;;;6.40;1.70;;;18.00;87.30;;;;;;10488309;28;20044;-25
2022/11/05 22:57:35;;;;;;;4.60;1.33;;;16.70;90.60;;;;;;10486330;28;20052;-26
2022/11/05 23:02:37;;;;;;;3.03;1.27;;;17.80;89.40;;;;;;10489876;28;20859;-25
2022/11/05 23:13:00;;;;;;;5.07;1.42;;;18.80;81.60;;;;;;10488442;28;20064;-25
2022/11/05 23:28:43;;;;;;;8.32;1.63;;;16.10;91.10;;;;;;10480547;28;20056;-25
2022/11/05 23:33:45;;;;;;;10.18;2.78;;;17.10;91.10;;;;;;10486252;28;20048;-24
2022/11/05 23:38:47;;;;;;;7.50;2.40;;;17.70;86.60;;;;;;10488285;28;20040;-25
2022/11/05 23:49:10;;;;;;;8.65;1.65;;;17.10;91.30;;;;;;10485385;28;20903;-25
2022/11/05 23:54:12;;;;;;;6.00;1.83;;;16.80;92.70;;;;;;10486670;28;20048;-25
2022/11/05 23:59:15;;;;;;;4.32;1.73;;;16.40;90.00;;;;;;10503005;28;20098;-23
